sensor_id;sensor_type;location;lat;lon;timestamp;P1;durP1;ratioP1;P2;durP2;ratioP2
77362;SDS011;66428;47.322;9.432;2023-03-14T00:00:39;1.38;;;0.50;;
77362;SDS011;66428;47.322;9.432;2023-03-14T00:03:08;2.08;;;0.73;;
77362;SDS011;66428;47.322;9.432;2023-03-14T00:05:34;1.60;;;0.45;;
77362;SDS011;66428;47.322;9.432;2023-03-14T00:08:03;0.38;;;0.38;;
77362;SDS011;66428;47.322;9.432;2023-03-14T00:10:32;0.50;;;0.50;;
77362;SDS011;66428;47.322;9.432;2023-03-14T00:13:01;0.80;;;0.43;;
77362;SDS011;66428;47.322;9.432;2023-03-14T00:15:28;0.80;;;0.52;;
77362;SDS011;66428;47.322;9.432;2023-03-14T00:18:00;0.73;;;0.60;;
77362;SDS011;66428;47.322;9.432;2023-03-14T00:20:29;0.45;;;0.40;;
77362;SDS011;66428;47.322;9.432;2023-03-14T00:22:55;0.52;;;0.50;;
77362;SDS011;66428;47.322;9.432;2023-03-14T00:25:24;1.05;;;0.60;;
77362;SDS011;66428;47.322;9.432;2023-03-14T00:27:56;0.52;;;0.50;;
77362;SDS011;66428;47.322;9.432;2023-03-14T00:30:25;0.50;;;0.40;;
77362;SDS011;66428;47.322;9.432;2023-03-14T00:32:56;0.55;;;0.47;;
77362;SDS011;66428;47.322;9.432;2023-03-14T00:35:25;0.52;;;0.52;;
77362;SDS011;66428;47.322;9.432;2023-03-14T00:37:54;0.73;;;0.30;;
77362;SDS011;66428;47.322;9.432;2023-03-14T00:40:24;1.02;;;0.40;;
77362;SDS011;66428;47.322;9.432;2023-03-14T00:42:53;0.50;;;0.30;;
77362;SDS011;66428;47.322;9.432;2023-03-14T00:45:20;1.38;;;0.30;;
77362;SDS011;66428;47.322;9.432;2023-03-14T00:47:49;0.45;;;0.45;;
77362;SDS011;66428;47.322;9.432;2023-03-14T00:50:18;0.28;;;0.28;;
77362;SDS011;66428;47.322;9.432;2023-03-14T00:55:15;0.32;;;0.30;;
77362;SDS011;66428;47.322;9.432;2023-03-14T00:57:43;1.50;;;0.32;;
77362;SDS011;66428;47.322;9.432;2023-03-14T01:00:12;0.30;;;0.30;;
77362;SDS011;66428;47.322;9.432;2023-03-14T01:02:44;0.30;;;0.30;;
77362;SDS011;66428;47.322;9.432;2023-03-14T01:05:10;2.78;;;0.50;;
77362;SDS011;66428;47.322;9.432;2023-03-14T01:07:37;0.30;;;0.30;;
77362;SDS011;66428;47.322;9.432;2023-03-14T01:10:08;0.22;;;0.22;;
77362;SDS011;66428;47.322;9.432;2023-03-14T01:12:36;0.30;;;0.30;;
77362;SDS011;66428;47.322;9.432;2023-03-14T01:15:02;0.30;;;0.30;;
77362;SDS011;66428;47.322;9.432;2023-03-14T01:17:32;0.40;;;0.40;;
77362;SDS011;66428;47.322;9.432;2023-03-14T01:20:01;0.32;;;0.32;;
77362;SDS011;66428;47.322;9.432;2023-03-14T01:22:32;0.30;;;0.30;;
77362;SDS011;66428;47.322;9.432;2023-03-14T01:25:01;0.30;;;0.30;;
77362;SDS011;66428;47.322;9.432;2023-03-14T01:27:28;0.30;;;0.30;;
77362;SDS011;66428;47.322;9.432;2023-03-14T01:29:57;0.20;;;0.20;;
77362;SDS011;66428;47.322;9.432;2023-03-14T01:32:26;0.30;;;0.30;;
77362;SDS011;66428;47.322;9.432;2023-03-14T01:37:19;0.10;;;0.10;;
77362;SDS011;66428;47.322;9.432;2023-03-14T01:43:29;1.20;;;0.30;;
77362;SDS011;66428;47.322;9.432;2023-03-14T01:48:36;0.60;;;0.30;;
77362;SDS011;66428;47.322;9.432;2023-03-14T01:51:04;0.22;;;0.22;;
77362;SDS011;66428;47.322;9.432;2023-03-14T01:53:35;0.30;;;0.30;;
77362;SDS011;66428;47.322;9.432;2023-03-14T01:56:04;0.50;;;0.50;;
77362;SDS011;66428;47.322;9.432;2023-03-14T01:58:34;0.20;;;0.20;;
77362;SDS011;66428;47.322;9.432;2023-03-14T02:01:09;0.25;;;0.25;;
77362;SDS011;66428;47.322;9.432;2023-03-14T02:09:56;0.20;;;0.20;;
77362;SDS011;66428;47.322;9.432;2023-03-14T02:12:30;0.20;;;0.20;;
77362;SDS011;66428;47.322;9.432;2023-03-14T02:15:21;0.35;;;0.35;;
77362;SDS011;66428;47.322;9.432;2023-03-14T02:17:53;0.70;;;0.28;;
77362;SDS011;66428;47.322;9.432;2023-03-14T02:23:28;0.32;;;0.32;;
77362;SDS011;66428;47.322;9.432;2023-03-14T02:26:01;0.20;;;0.20;;
77362;SDS011;66428;47.322;9.432;2023-03-14T02:28:29;0.30;;;0.25;;
77362;SDS011;66428;47.322;9.432;2023-03-14T02:31:03;0.20;;;0.20;;
77362;SDS011;66428;47.322;9.432;2023-03-14T02:33:33;0.20;;;0.20;;
77362;SDS011;66428;47.322;9.432;2023-03-14T02:36:04;0.20;;;0.20;;
77362;SDS011;66428;47.322;9.432;2023-03-14T02:38:43;0.28;;;0.28;;
77362;SDS011;66428;47.322;9.432;2023-03-14T02:41:15;0.30;;;0.30;;
77362;SDS011;66428;47.322;9.432;2023-03-14T02:43:48;0.25;;;0.25;;
77362;SDS011;66428;47.322;9.432;2023-03-14T02:46:20;0.30;;;0.30;;
77362;SDS011;66428;47.322;9.432;2023-03-14T02:48:56;0.40;;;0.40;;
77362;SDS011;66428;47.322;9.432;2023-03-14T02:51:26;0.20;;;0.20;;
77362;SDS011;66428;47.322;9.432;2023-03-14T02:53:58;0.43;;;0.43;;
77362;SDS011;66428;47.322;9.432;2023-03-14T02:56:25;0.43;;;0.40;;
77362;SDS011;66428;47.322;9.432;2023-03-14T02:58:57;0.95;;;0.35;;
77362;SDS011;66428;47.322;9.432;2023-03-14T03:01:33;1.10;;;0.50;;
77362;SDS011;66428;47.322;9.432;2023-03-14T03:04:02;0.65;;;0.65;;
77362;SDS011;66428;47.322;9.432;2023-03-14T03:06:29;1.65;;;0.68;;
77362;SDS011;66428;47.322;9.432;2023-03-14T03:11:22;2.72;;;0.63;;
77362;SDS011;66428;47.322;9.432;2023-03-14T03:13:49;1.20;;;0.65;;
77362;SDS011;66428;47.322;9.432;2023-03-14T03:16:18;1.45;;;0.70;;
77362;SDS011;66428;47.322;9.432;2023-03-14T03:18:47;1.02;;;0.50;;
77362;SDS011;66428;47.322;9.432;2023-03-14T03:21:14;1.02;;;0.63;;
77362;SDS011;66428;47.322;9.432;2023-03-14T03:23:44;0.20;;;0.20;;
77362;SDS011;66428;47.322;9.432;2023-03-14T03:26:13;0.43;;;0.32;;
77362;SDS011;66428;47.322;9.432;2023-03-14T03:28:40;0.35;;;0.25;;
77362;SDS011;66428;47.322;9.432;2023-03-14T03:31:11;0.25;;;0.25;;
77362;SDS011;66428;47.322;9.432;2023-03-14T03:33:43;0.20;;;0.20;;
77362;SDS011;66428;47.322;9.432;2023-03-14T03:36:12;0.30;;;0.30;;
77362;SDS011;66428;47.322;9.432;2023-03-14T03:38:59;0.30;;;0.30;;
77362;SDS011;66428;47.322;9.432;2023-03-14T03:41:26;0.47;;;0.38;;
77362;SDS011;66428;47.322;9.432;2023-03-14T03:43:55;0.10;;;0.10;;
77362;SDS011;66428;47.322;9.432;2023-03-14T03:46:22;0.30;;;0.30;;
77362;SDS011;66428;47.322;9.432;2023-03-14T03:48:57;0.55;;;0.40;;
77362;SDS011;66428;47.322;9.432;2023-03-14T03:51:28;0.30;;;0.30;;
77362;SDS011;66428;47.322;9.432;2023-03-14T03:53:56;0.43;;;0.30;;
77362;SDS011;66428;47.322;9.432;2023-03-14T03:56:29;0.30;;;0.30;;
77362;SDS011;66428;47.322;9.432;2023-03-14T03:58:56;0.50;;;0.40;;
77362;SDS011;66428;47.322;9.432;2023-03-14T04:01:27;0.38;;;0.38;;
77362;SDS011;66428;47.322;9.432;2023-03-14T04:03:56;0.30;;;0.30;;
77362;SDS011;66428;47.322;9.432;2023-03-14T04:06:24;0.28;;;0.28;;
77362;SDS011;66428;47.322;9.432;2023-03-14T04:08:56;0.30;;;0.30;;
77362;SDS011;66428;47.322;9.432;2023-03-14T04:11:48;0.30;;;0.30;;
77362;SDS011;66428;47.322;9.432;2023-03-14T04:14:20;0.47;;;0.45;;
77362;SDS011;66428;47.322;9.432;2023-03-14T04:16:57;0.22;;;0.22;;
77362;SDS011;66428;47.322;9.432;2023-03-14T04:19:26;0.30;;;0.30;;
77362;SDS011;66428;47.322;9.432;2023-03-14T04:21:55;1.75;;;0.40;;
77362;SDS011;66428;47.322;9.432;2023-03-14T04:24:29;0.50;;;0.50;;
77362;SDS011;66428;47.322;9.432;2023-03-14T04:26:57;0.43;;;0.40;;
77362;SDS011;66428;47.322;9.432;2023-03-14T04:32:47;0.20;;;0.20;;
77362;SDS011;66428;47.322;9.432;2023-03-14T04:35:17;0.40;;;0.40;;
77362;SDS011;66428;47.322;9.432;2023-03-14T04:37:51;0.60;;;0.50;;
77362;SDS011;66428;47.322;9.432;2023-03-14T04:40:21;0.30;;;0.30;;
77362;SDS011;66428;47.322;9.432;2023-03-14T04:42:51;0.30;;;0.30;;
77362;SDS011;66428;47.322;9.432;2023-03-14T04:45:23;0.30;;;0.30;;
77362;SDS011;66428;47.322;9.432;2023-03-14T04:47:50;0.57;;;0.45;;
77362;SDS011;66428;47.322;9.432;2023-03-14T04:50:24;1.08;;;0.55;;
77362;SDS011;66428;47.322;9.432;2023-03-14T04:52:51;0.40;;;0.40;;
77362;SDS011;66428;47.322;9.432;2023-03-14T04:55:22;0.40;;;0.40;;
77362;SDS011;66428;47.322;9.432;2023-03-14T04:57:56;0.40;;;0.40;;
77362;SDS011;66428;47.322;9.432;2023-03-14T05:00:24;0.25;;;0.25;;
77362;SDS011;66428;47.322;9.432;2023-03-14T05:02:56;0.30;;;0.30;;
77362;SDS011;66428;47.322;9.432;2023-03-14T05:05:46;0.20;;;0.20;;
77362;SDS011;66428;47.322;9.432;2023-03-14T05:08:36;0.28;;;0.28;;
77362;SDS011;66428;47.322;9.432;2023-03-14T05:11:23;0.30;;;0.30;;
77362;SDS011;66428;47.322;9.432;2023-03-14T05:14:07;1.42;;;0.60;;
77362;SDS011;66428;47.322;9.432;2023-03-14T05:16:56;1.17;;;0.70;;
77362;SDS011;66428;47.322;9.432;2023-03-14T05:19:54;1.33;;;0.70;;
77362;SDS011;66428;47.322;9.432;2023-03-14T05:22:33;1.80;;;0.95;;
77362;SDS011;66428;47.322;9.432;2023-03-14T05:25:04;2.00;;;1.25;;
77362;SDS011;66428;47.322;9.432;2023-03-14T05:27:35;0.80;;;0.40;;
77362;SDS011;66428;47.322;9.432;2023-03-14T05:30:11;0.95;;;0.68;;
77362;SDS011;66428;47.322;9.432;2023-03-14T05:32:38;0.90;;;0.77;;
77362;SDS011;66428;47.322;9.432;2023-03-14T05:35:10;1.05;;;0.75;;
77362;SDS011;66428;47.322;9.432;2023-03-14T05:37:52;1.70;;;0.75;;
77362;SDS011;66428;47.322;9.432;2023-03-14T05:40:36;0.30;;;0.30;;
77362;SDS011;66428;47.322;9.432;2023-03-14T05:43:15;0.70;;;0.70;;
77362;SDS011;66428;47.322;9.432;2023-03-14T05:46:16;3.60;;;1.40;;
77362;SDS011;66428;47.322;9.432;2023-03-14T05:48:51;2.47;;;1.35;;
77362;SDS011;66428;47.322;9.432;2023-03-14T05:51:37;6.30;;;2.88;;
77362;SDS011;66428;47.322;9.432;2023-03-14T05:54:21;2.63;;;1.15;;
77362;SDS011;66428;47.322;9.432;2023-03-14T05:56:59;1.92;;;1.23;;
77362;SDS011;66428;47.322;9.432;2023-03-14T05:59:44;0.95;;;0.70;;
77362;SDS011;66428;47.322;9.432;2023-03-14T06:02:33;1.23;;;0.63;;
77362;SDS011;66428;47.322;9.432;2023-03-14T06:05:09;0.75;;;0.60;;
77362;SDS011;66428;47.322;9.432;2023-03-14T06:10:04;1.88;;;0.57;;
77362;SDS011;66428;47.322;9.432;2023-03-14T06:12:31;2.00;;;1.02;;
77362;SDS011;66428;47.322;9.432;2023-03-14T06:14:57;3.40;;;1.77;;
77362;SDS011;66428;47.322;9.432;2023-03-14T06:19:59;3.70;;;2.22;;
77362;SDS011;66428;47.322;9.432;2023-03-14T06:22:26;6.28;;;2.92;;
77362;SDS011;66428;47.322;9.432;2023-03-14T06:24:53;8.68;;;4.55;;
77362;SDS011;66428;47.322;9.432;2023-03-14T06:27:23;12.77;;;6.43;;
77362;SDS011;66428;47.322;9.432;2023-03-14T06:29:53;11.13;;;4.85;;
77362;SDS011;66428;47.322;9.432;2023-03-14T06:34:50;3.50;;;2.05;;
77362;SDS011;66428;47.322;9.432;2023-03-14T06:37:18;2.30;;;1.55;;
77362;SDS011;66428;47.322;9.432;2023-03-14T06:39:47;1.42;;;0.90;;
77362;SDS011;66428;47.322;9.432;2023-03-14T06:42:27;1.92;;;0.98;;
77362;SDS011;66428;47.322;9.432;2023-03-14T06:44:54;1.40;;;0.90;;
77362;SDS011;66428;47.322;9.432;2023-03-14T06:47:21;1.58;;;0.90;;
77362;SDS011;66428;47.322;9.432;2023-03-14T06:52:18;1.10;;;0.70;;
77362;SDS011;66428;47.322;9.432;2023-03-14T06:54:45;1.90;;;1.00;;
77362;SDS011;66428;47.322;9.432;2023-03-14T06:57:14;3.30;;;1.75;;
77362;SDS011;66428;47.322;9.432;2023-03-14T06:59:43;4.38;;;2.35;;
77362;SDS011;66428;47.322;9.432;2023-03-14T07:02:13;2.72;;;1.27;;
77362;SDS011;66428;47.322;9.432;2023-03-14T07:04:42;1.67;;;1.02;;
77362;SDS011;66428;47.322;9.432;2023-03-14T07:07:12;2.15;;;0.95;;
77362;SDS011;66428;47.322;9.432;2023-03-14T07:09:38;14.38;;;9.40;;
77362;SDS011;66428;47.322;9.432;2023-03-14T07:12:08;3.83;;;2.33;;
77362;SDS011;66428;47.322;9.432;2023-03-14T07:14:34;2.22;;;1.60;;
77362;SDS011;66428;47.322;9.432;2023-03-14T07:17:06;2.13;;;1.17;;
77362;SDS011;66428;47.322;9.432;2023-03-14T07:19:34;1.88;;;1.30;;
77362;SDS011;66428;47.322;9.432;2023-03-14T07:22:01;2.05;;;1.17;;
77362;SDS011;66428;47.322;9.432;2023-03-14T07:24:28;2.95;;;1.73;;
77362;SDS011;66428;47.322;9.432;2023-03-14T07:29:21;2.42;;;1.13;;
77362;SDS011;66428;47.322;9.432;2023-03-14T07:31:51;1.48;;;0.98;;
77362;SDS011;66428;47.322;9.432;2023-03-14T07:34:21;1.50;;;1.15;;
77362;SDS011;66428;47.322;9.432;2023-03-14T07:36:51;2.92;;;1.20;;
77362;SDS011;66428;47.322;9.432;2023-03-14T07:39:17;3.90;;;1.33;;
77362;SDS011;66428;47.322;9.432;2023-03-14T07:41:44;2.22;;;1.52;;
77362;SDS011;66428;47.322;9.432;2023-03-14T07:44:38;2.35;;;1.35;;
77362;SDS011;66428;47.322;9.432;2023-03-14T07:47:04;1.90;;;0.90;;
77362;SDS011;66428;47.322;9.432;2023-03-14T07:51:59;1.95;;;0.98;;
77362;SDS011;66428;47.322;9.432;2023-03-14T07:54:31;1.67;;;1.08;;
77362;SDS011;66428;47.322;9.432;2023-03-14T07:56:58;1.92;;;1.10;;
77362;SDS011;66428;47.322;9.432;2023-03-14T07:59:27;1.95;;;1.35;;
77362;SDS011;66428;47.322;9.432;2023-03-14T08:01:54;1.80;;;0.95;;
77362;SDS011;66428;47.322;9.432;2023-03-14T08:04:20;1.63;;;1.13;;
77362;SDS011;66428;47.322;9.432;2023-03-14T08:06:47;0.95;;;0.70;;
77362;SDS011;66428;47.322;9.432;2023-03-14T08:09:13;1.50;;;0.80;;
77362;SDS011;66428;47.322;9.432;2023-03-14T08:11:42;1.20;;;0.73;;
77362;SDS011;66428;47.322;9.432;2023-03-14T08:16:38;3.58;;;0.80;;
77362;SDS011;66428;47.322;9.432;2023-03-14T08:19:06;1.25;;;0.88;;
77362;SDS011;66428;47.322;9.432;2023-03-14T08:21:33;2.45;;;0.90;;
77362;SDS011;66428;47.322;9.432;2023-03-14T08:24:02;2.30;;;0.98;;
77362;SDS011;66428;47.322;9.432;2023-03-14T08:26:33;4.22;;;1.25;;
77362;SDS011;66428;47.322;9.432;2023-03-14T08:29:03;2.83;;;1.40;;
77362;SDS011;66428;47.322;9.432;2023-03-14T08:31:30;3.75;;;1.85;;
77362;SDS011;66428;47.322;9.432;2023-03-14T08:33:59;5.15;;;1.67;;
77362;SDS011;66428;47.322;9.432;2023-03-14T08:36:26;8.65;;;2.13;;
77362;SDS011;66428;47.322;9.432;2023-03-14T08:38:52;20.00;;;5.30;;
77362;SDS011;66428;47.322;9.432;2023-03-14T08:41:19;19.02;;;3.03;;
77362;SDS011;66428;47.322;9.432;2023-03-14T08:43:46;2.92;;;1.17;;
77362;SDS011;66428;47.322;9.432;2023-03-14T08:46:12;2.85;;;1.17;;
77362;SDS011;66428;47.322;9.432;2023-03-14T08:48:41;2.03;;;1.10;;
77362;SDS011;66428;47.322;9.432;2023-03-14T08:51:09;2.90;;;1.00;;
77362;SDS011;66428;47.322;9.432;2023-03-14T08:53:37;1.52;;;0.75;;
77362;SDS011;66428;47.322;9.432;2023-03-14T08:56:03;2.03;;;1.10;;
77362;SDS011;66428;47.322;9.432;2023-03-14T08:58:37;1.25;;;0.80;;
77362;SDS011;66428;47.322;9.432;2023-03-14T09:01:07;2.10;;;0.98;;
77362;SDS011;66428;47.322;9.432;2023-03-14T09:03:35;3.10;;;1.30;;
77362;SDS011;66428;47.322;9.432;2023-03-14T09:06:04;1.13;;;0.70;;
77362;SDS011;66428;47.322;9.432;2023-03-14T09:08:34;1.65;;;0.93;;
77362;SDS011;66428;47.322;9.432;2023-03-14T09:11:08;2.47;;;1.33;;
77362;SDS011;66428;47.322;9.432;2023-03-14T09:13:37;1.88;;;1.13;;
77362;SDS011;66428;47.322;9.432;2023-03-14T09:16:04;1.60;;;1.10;;
77362;SDS011;66428;47.322;9.432;2023-03-14T09:18:38;3.03;;;1.00;;
77362;SDS011;66428;47.322;9.432;2023-03-14T09:21:10;1.63;;;0.90;;
77362;SDS011;66428;47.322;9.432;2023-03-14T09:23:36;1.40;;;1.10;;
77362;SDS011;66428;47.322;9.432;2023-03-14T09:26:03;0.68;;;0.60;;
77362;SDS011;66428;47.322;9.432;2023-03-14T09:28:32;1.55;;;0.50;;
77362;SDS011;66428;47.322;9.432;2023-03-14T09:31:05;3.42;;;0.50;;
77362;SDS011;66428;47.322;9.432;2023-03-14T09:33:37;1.77;;;0.60;;
77362;SDS011;66428;47.322;9.432;2023-03-14T09:36:06;0.32;;;0.30;;
77362;SDS011;66428;47.322;9.432;2023-03-14T09:38:34;0.30;;;0.30;;
77362;SDS011;66428;47.322;9.432;2023-03-14T09:41:01;0.68;;;0.40;;
77362;SDS011;66428;47.322;9.432;2023-03-14T09:43:31;0.30;;;0.30;;
77362;SDS011;66428;47.322;9.432;2023-03-14T09:46:00;1.30;;;0.40;;
77362;SDS011;66428;47.322;9.432;2023-03-14T09:48:32;0.32;;;0.32;;
77362;SDS011;66428;47.322;9.432;2023-03-14T09:51:07;0.40;;;0.40;;
77362;SDS011;66428;47.322;9.432;2023-03-14T09:56:16;0.30;;;0.30;;
77362;SDS011;66428;47.322;9.432;2023-03-14T09:58:49;1.02;;;0.45;;
77362;SDS011;66428;47.322;9.432;2023-03-14T10:01:20;0.30;;;0.30;;
77362;SDS011;66428;47.322;9.432;2023-03-14T10:03:57;0.30;;;0.30;;
77362;SDS011;66428;47.322;9.432;2023-03-14T10:06:24;1.15;;;0.35;;
77362;SDS011;66428;47.322;9.432;2023-03-14T10:08:52;1.45;;;0.85;;
77362;SDS011;66428;47.322;9.432;2023-03-14T10:11:19;0.60;;;0.40;;
77362;SDS011;66428;47.322;9.432;2023-03-14T10:16:18;0.30;;;0.30;;
77362;SDS011;66428;47.322;9.432;2023-03-14T10:19:05;0.50;;;0.30;;
77362;SDS011;66428;47.322;9.432;2023-03-14T10:21:38;0.22;;;0.22;;
77362;SDS011;66428;47.322;9.432;2023-03-14T10:26:55;1.02;;;0.50;;
77362;SDS011;66428;47.322;9.432;2023-03-14T10:29:24;1.00;;;0.65;;
77362;SDS011;66428;47.322;9.432;2023-03-14T10:31:54;2.50;;;1.42;;
77362;SDS011;66428;47.322;9.432;2023-03-14T10:34:23;0.93;;;0.47;;
77362;SDS011;66428;47.322;9.432;2023-03-14T10:36:55;0.68;;;0.50;;
77362;SDS011;66428;47.322;9.432;2023-03-14T10:39:26;2.58;;;1.10;;
77362;SDS011;66428;47.322;9.432;2023-03-14T10:42:16;0.85;;;0.55;;
77362;SDS011;66428;47.322;9.432;2023-03-14T10:44:43;0.40;;;0.30;;
77362;SDS011;66428;47.322;9.432;2023-03-14T10:47:16;0.38;;;0.38;;
77362;SDS011;66428;47.322;9.432;2023-03-14T10:49:46;1.80;;;0.82;;
77362;SDS011;66428;47.322;9.432;2023-03-14T10:55:08;0.82;;;0.82;;
77362;SDS011;66428;47.322;9.432;2023-03-14T10:57:41;2.97;;;0.80;;
77362;SDS011;66428;47.322;9.432;2023-03-14T11:00:11;1.67;;;1.17;;
77362;SDS011;66428;47.322;9.432;2023-03-14T11:02:51;1.58;;;0.88;;
77362;SDS011;66428;47.322;9.432;2023-03-14T11:07:53;1.00;;;0.40;;
77362;SDS011;66428;47.322;9.432;2023-03-14T11:13:29;0.50;;;0.50;;
77362;SDS011;66428;47.322;9.432;2023-03-14T11:19:21;0.75;;;0.70;;
77362;SDS011;66428;47.322;9.432;2023-03-14T11:29:38;0.20;;;0.20;;
77362;SDS011;66428;47.322;9.432;2023-03-14T11:32:12;1.05;;;0.43;;
77362;SDS011;66428;47.322;9.432;2023-03-14T11:37:21;1.33;;;1.33;;
77362;SDS011;66428;47.322;9.432;2023-03-14T11:39:56;0.45;;;0.40;;
77362;SDS011;66428;47.322;9.432;2023-03-14T11:42:28;0.60;;;0.47;;
77362;SDS011;66428;47.322;9.432;2023-03-14T11:44:57;1.35;;;0.63;;
77362;SDS011;66428;47.322;9.432;2023-03-14T11:47:26;1.42;;;0.70;;
77362;SDS011;66428;47.322;9.432;2023-03-14T11:49:59;0.70;;;0.52;;
77362;SDS011;66428;47.322;9.432;2023-03-14T11:52:35;0.93;;;0.55;;
77362;SDS011;66428;47.322;9.432;2023-03-14T11:57:32;1.15;;;0.90;;
77362;SDS011;66428;47.322;9.432;2023-03-14T12:05:34;1.27;;;0.65;;
77362;SDS011;66428;47.322;9.432;2023-03-14T12:10:35;0.75;;;0.52;;
77362;SDS011;66428;47.322;9.432;2023-03-14T12:13:06;0.35;;;0.32;;
77362;SDS011;66428;47.322;9.432;2023-03-14T12:15:33;0.80;;;0.50;;
77362;SDS011;66428;47.322;9.432;2023-03-14T12:18:15;0.82;;;0.50;;
77362;SDS011;66428;47.322;9.432;2023-03-14T12:20:51;0.90;;;0.57;;
77362;SDS011;66428;47.322;9.432;2023-03-14T12:23:18;0.77;;;0.52;;
77362;SDS011;66428;47.322;9.432;2023-03-14T12:25:47;0.35;;;0.35;;
77362;SDS011;66428;47.322;9.432;2023-03-14T12:28:16;0.95;;;0.65;;
77362;SDS011;66428;47.322;9.432;2023-03-14T12:30:46;0.57;;;0.45;;
77362;SDS011;66428;47.322;9.432;2023-03-14T12:35:43;0.80;;;0.52;;
77362;SDS011;66428;47.322;9.432;2023-03-14T12:43:43;0.30;;;0.28;;
77362;SDS011;66428;47.322;9.432;2023-03-14T12:48:38;0.38;;;0.28;;
77362;SDS011;66428;47.322;9.432;2023-03-14T12:51:15;0.43;;;0.38;;
77362;SDS011;66428;47.322;9.432;2023-03-14T13:01:23;0.22;;;0.22;;
77362;SDS011;66428;47.322;9.432;2023-03-14T13:03:54;0.63;;;0.40;;
77362;SDS011;66428;47.322;9.432;2023-03-14T13:11:54;0.70;;;0.63;;
77362;SDS011;66428;47.322;9.432;2023-03-14T13:14:23;0.40;;;0.30;;
77362;SDS011;66428;47.322;9.432;2023-03-14T13:16:52;0.60;;;0.57;;
77362;SDS011;66428;47.322;9.432;2023-03-14T13:19:19;0.32;;;0.32;;
77362;SDS011;66428;47.322;9.432;2023-03-14T13:21:46;0.50;;;0.50;;
77362;SDS011;66428;47.322;9.432;2023-03-14T13:26:42;1.25;;;0.43;;
77362;SDS011;66428;47.322;9.432;2023-03-14T13:31:47;0.40;;;0.40;;
77362;SDS011;66428;47.322;9.432;2023-03-14T13:34:17;0.50;;;0.50;;
77362;SDS011;66428;47.322;9.432;2023-03-14T13:36:51;0.55;;;0.55;;
77362;SDS011;66428;47.322;9.432;2023-03-14T13:39:21;0.40;;;0.40;;
77362;SDS011;66428;47.322;9.432;2023-03-14T13:42:00;0.75;;;0.63;;
77362;SDS011;66428;47.322;9.432;2023-03-14T13:44:37;0.50;;;0.50;;
77362;SDS011;66428;47.322;9.432;2023-03-14T13:47:05;0.73;;;0.60;;
77362;SDS011;66428;47.322;9.432;2023-03-14T13:49:34;0.73;;;0.57;;
77362;SDS011;66428;47.322;9.432;2023-03-14T13:52:03;0.65;;;0.50;;
77362;SDS011;66428;47.322;9.432;2023-03-14T13:54:32;1.02;;;0.70;;
77362;SDS011;66428;47.322;9.432;2023-03-14T13:59:35;0.93;;;0.60;;
77362;SDS011;66428;47.322;9.432;2023-03-14T14:02:09;0.70;;;0.60;;
77362;SDS011;66428;47.322;9.432;2023-03-14T14:04:41;1.83;;;0.80;;
77362;SDS011;66428;47.322;9.432;2023-03-14T14:07:08;2.17;;;0.85;;
77362;SDS011;66428;47.322;9.432;2023-03-14T14:09:39;2.22;;;0.80;;
77362;SDS011;66428;47.322;9.432;2023-03-14T14:17:44;1.35;;;0.80;;
77362;SDS011;66428;47.322;9.432;2023-03-14T14:20:51;1.38;;;0.90;;
77362;SDS011;66428;47.322;9.432;2023-03-14T14:23:04;2.42;;;0.85;;
77362;SDS011;66428;47.322;9.432;2023-03-14T14:25:31;0.43;;;0.43;;
77362;SDS011;66428;47.322;9.432;2023-03-14T14:27:58;0.88;;;0.70;;
77362;SDS011;66428;47.322;9.432;2023-03-14T14:35:25;0.90;;;0.60;;
77362;SDS011;66428;47.322;9.432;2023-03-14T14:37:52;2.00;;;0.80;;
77362;SDS011;66428;47.322;9.432;2023-03-14T14:40:22;0.93;;;0.70;;
77362;SDS011;66428;47.322;9.432;2023-03-14T14:42:50;1.15;;;0.75;;
77362;SDS011;66428;47.322;9.432;2023-03-14T14:45:20;1.85;;;0.73;;
77362;SDS011;66428;47.322;9.432;2023-03-14T14:47:54;1.05;;;0.75;;
77362;SDS011;66428;47.322;9.432;2023-03-14T14:50:34;0.80;;;0.80;;
77362;SDS011;66428;47.322;9.432;2023-03-14T14:53:25;0.82;;;0.68;;
77362;SDS011;66428;47.322;9.432;2023-03-14T14:55:53;3.90;;;0.90;;
77362;SDS011;66428;47.322;9.432;2023-03-14T14:58:22;3.85;;;0.90;;
77362;SDS011;66428;47.322;9.432;2023-03-14T15:01:10;1.92;;;1.00;;
77362;SDS011;66428;47.322;9.432;2023-03-14T15:03:37;1.73;;;1.15;;
77362;SDS011;66428;47.322;9.432;2023-03-14T15:06:08;2.17;;;0.98;;
77362;SDS011;66428;47.322;9.432;2023-03-14T15:08:40;1.60;;;1.00;;
77362;SDS011;66428;47.322;9.432;2023-03-14T15:11:11;5.25;;;1.52;;
77362;SDS011;66428;47.322;9.432;2023-03-14T15:13:44;4.15;;;3.15;;
77362;SDS011;66428;47.322;9.432;2023-03-14T15:16:15;2.38;;;1.00;;
77362;SDS011;66428;47.322;9.432;2023-03-14T15:18:42;2.40;;;1.60;;
77362;SDS011;66428;47.322;9.432;2023-03-14T15:21:11;2.72;;;0.70;;
77362;SDS011;66428;47.322;9.432;2023-03-14T15:23:40;3.45;;;1.20;;
77362;SDS011;66428;47.322;9.432;2023-03-14T15:26:13;4.07;;;3.30;;
77362;SDS011;66428;47.322;9.432;2023-03-14T15:28:41;3.95;;;2.97;;
77362;SDS011;66428;47.322;9.432;2023-03-14T15:31:08;8.95;;;8.13;;
77362;SDS011;66428;47.322;9.432;2023-03-14T15:33:38;25.85;;;18.70;;
77362;SDS011;66428;47.322;9.432;2023-03-14T15:36:15;6.10;;;3.40;;
77362;SDS011;66428;47.322;9.432;2023-03-14T15:38:43;3.30;;;2.20;;
77362;SDS011;66428;47.322;9.432;2023-03-14T15:41:09;1.73;;;1.52;;
77362;SDS011;66428;47.322;9.432;2023-03-14T15:43:38;1.52;;;0.93;;
77362;SDS011;66428;47.322;9.432;2023-03-14T15:46:10;1.67;;;0.73;;
77362;SDS011;66428;47.322;9.432;2023-03-14T15:48:37;3.42;;;1.50;;
77362;SDS011;66428;47.322;9.432;2023-03-14T15:51:06;2.10;;;1.27;;
77362;SDS011;66428;47.322;9.432;2023-03-14T15:53:33;2.28;;;1.42;;
77362;SDS011;66428;47.322;9.432;2023-03-14T15:56:05;2.90;;;1.20;;
77362;SDS011;66428;47.322;9.432;2023-03-14T15:58:40;5.88;;;1.73;;
77362;SDS011;66428;47.322;9.432;2023-03-14T16:01:07;5.45;;;4.00;;
77362;SDS011;66428;47.322;9.432;2023-03-14T16:03:37;4.32;;;3.10;;
77362;SDS011;66428;47.322;9.432;2023-03-14T16:06:05;3.80;;;2.25;;
77362;SDS011;66428;47.322;9.432;2023-03-14T16:08:32;3.13;;;1.02;;
77362;SDS011;66428;47.322;9.432;2023-03-14T16:13:25;1.45;;;1.05;;
77362;SDS011;66428;47.322;9.432;2023-03-14T16:15:59;1.60;;;0.93;;
77362;SDS011;66428;47.322;9.432;2023-03-14T16:18:27;3.05;;;1.80;;
77362;SDS011;66428;47.322;9.432;2023-03-14T16:21:00;3.08;;;1.30;;
77362;SDS011;66428;47.322;9.432;2023-03-14T16:23:27;2.42;;;1.67;;
77362;SDS011;66428;47.322;9.432;2023-03-14T16:25:57;1.90;;;1.23;;
77362;SDS011;66428;47.322;9.432;2023-03-14T16:28:26;2.42;;;0.88;;
77362;SDS011;66428;47.322;9.432;2023-03-14T16:31:05;0.73;;;0.60;;
77362;SDS011;66428;47.322;9.432;2023-03-14T16:33:34;1.25;;;0.80;;
77362;SDS011;66428;47.322;9.432;2023-03-14T16:36:01;2.28;;;0.98;;
77362;SDS011;66428;47.322;9.432;2023-03-14T16:38:34;1.15;;;0.73;;
77362;SDS011;66428;47.322;9.432;2023-03-14T16:41:09;0.88;;;0.63;;
77362;SDS011;66428;47.322;9.432;2023-03-14T16:43:38;1.17;;;0.90;;
77362;SDS011;66428;47.322;9.432;2023-03-14T16:46:10;0.90;;;0.43;;
77362;SDS011;66428;47.322;9.432;2023-03-14T16:48:40;0.73;;;0.50;;
77362;SDS011;66428;47.322;9.432;2023-03-14T16:51:13;0.80;;;0.73;;
77362;SDS011;66428;47.322;9.432;2023-03-14T16:53:42;1.20;;;0.90;;
77362;SDS011;66428;47.322;9.432;2023-03-14T16:56:12;1.38;;;0.80;;
77362;SDS011;66428;47.322;9.432;2023-03-14T16:58:44;2.30;;;1.33;;
77362;SDS011;66428;47.322;9.432;2023-03-14T17:01:12;2.45;;;1.20;;
77362;SDS011;66428;47.322;9.432;2023-03-14T17:03:44;0.90;;;0.60;;
77362;SDS011;66428;47.322;9.432;2023-03-14T17:06:12;2.15;;;1.20;;
77362;SDS011;66428;47.322;9.432;2023-03-14T17:08:43;3.00;;;1.27;;
77362;SDS011;66428;47.322;9.432;2023-03-14T17:11:12;4.30;;;1.80;;
77362;SDS011;66428;47.322;9.432;2023-03-14T17:13:39;3.15;;;1.10;;
77362;SDS011;66428;47.322;9.432;2023-03-14T17:18:32;1.23;;;0.77;;
77362;SDS011;66428;47.322;9.432;2023-03-14T17:21:01;1.38;;;0.93;;